메인 페이지
METAR-TAF:

METAR-TAF

공항 :

코임바토르, 인도

위도: 11-01-36N, 경도: 077-02-30E, 고도: 400m

현재 날씨관측

예보는 1 시간 40분 전, 18:00시(UTC)에 발표되었습니다.
북북동4kt
온도 24°C
습도 83%
기압 1016 hPa
시정: 5000m
고도 1200ft 상공 구름 조금
고도 8000ft 상공 구름 많음
연무

METAR: VOCB 301800Z 02004KT 5000 HZ FEW012 BKN080 24/21 Q1016 NOSIG

시각: 01:10 (19:40 UTC)

예보

예보는 2 시간 40분 전, 17:00시(UTC)에 발표되었습니다.
예보 대상 시간: 30일 18시부터 01일 24시까지 (UTC)
북북동5kt
시정: 5000m
고도 1500ft 상공 구름 보통
고도 8000ft 상공 구름 보통
연무
전환 중
30일 21시부터 30일 22시까지 (UTC)
시정: 4000m
박무
일시적
01일 00시부터 01일 03시까지 (UTC)
시정: 2000m
박무
전환 중
01일 03시부터 01일 04시까지 (UTC)
북북동10kt
시정: 6000m
일시적
01일 09시부터 01일 15시까지 (UTC)
고도 1500ft 상공 구름 보통
고도 8000ft 상공 구름 보통
전환 중
01일 15시부터 01일 16시까지 (UTC)
시정: 5000m
연무

TAF: VOCB 301700Z 3018/0124 02005KT 5000 HZ SCT015 SCT080 BECMG 3021/3022 4000 BR TEMPO 0100/0103 2000 BR BECMG 0103/0104 02010KT 6000 TEMPO 0109/0115 SCT015 FEW020TCU/CB SCT080 BECMG 0115/0116 5000 HZ

4,000개 이상의 공항 관측 자료 및 예보 (METAR 및 TAF 보고).

지도상에서 검색 가능한 기상관측소가 노란 점과 빨간 점으로 표시되어 있습니다.

기상관측소 명을 보려면 표시 위로 마우스를 이동하세요.

날씨 관측과 예보를 보려면 클릭하세요.

지도 변경 : 확대하려면 엑스 표시가 있는 녹색 버튼, 축소하려면 빼기 표시가 있는 녹색 버튼, 다음 페이지의 지도를 보려면 녹색 화살표를 클릭하세요.


METAR-TAF: